Terminal Aerodrome Forecast
Issued by NWS

Current Version | Previous Version | Graphics & Text | Print | Product List | Glossary On
Versions: 1 2 3 4 5 6 7 8 9 10 11 12 13 14 15 16 17
000
FTUS41 KILN 281700
TAFLUK
TAF
KLUK 281730Z 2818/2918 VRB03KT P6SM SCT040 SCT200
     FM290700 00000KT 1SM BR SCT050 SCT200
     FM291400 34004KT P6SM SCT045=

USA.gov is the U.S. government's official web portal to all federal, state and local government web resources and services.